UWKDUWLW

Guest
Details From UWKD - KAZAN
To UWLW - VOSTOCHNY
Flight Number -
Tags None
Created
Modified
Stats Distance 74 nm / 138 km
Max Altitude 0 ft / 0 m
Waypoints 3
Social Downloads 0
Likes 0
Share VATSIM

Download

Looking for another format? Having issues loading an existing format? Contact us
Advertisement - Login to hide

Notes

None

Route

UWKD KZN UWLW

ID Type Via Altitude Latitude Longitude Leg Dist Tot Dist Heading (true) Name
O UWKD APT - 0 ft / 0 m 55.60654˚ 49.27969˚ - 0 nm - KAZAN
KZN VOR - 0 ft / 0 m 55.60583˚ 49.27250˚ 0 nm 0 nm 260° / 260° KAZAN VOR-DME
O UWLW APT - 0 ft / 0 m 54.40101˚ 48.80266˚ 74 nm 74 nm 193° / 192° VOSTOCHNY

Altitude Profile

Advertisement - Login to hide

UWKD

Details ICAO UWKD (KZN)
Name KAZAN
Region Russia
Timezone Europe/Moscow (UTC+3.0)
Stats Elevation 411 ft / 125 m (AMSL)
Location 55.606544° 49.279689°
Runways 2
Magnetic Variation 13.287° E

METAR

UWKD 131030Z 15007G12MPS 4400 -SN BLSN OVC014 M03/M04 Q1022 R11/451034 TEMPO 1000 SN BLSN OVC005 RMK QFE756/1008

Decode

TAF

TAF UWKD 130755Z 1309/1409 15006G11MPS 3100 -SN BLSN OVC008 TX01/1409Z TNM03/1309Z TEMPO 1309/1315 15009G14MPS 1000 SN BLSN OVC004 FM131500 16007G12MPS 3100 -SNRA BR OVC005 TEMPO 1315/1318 1000 SNRA FZRA OVC003 TEMPO 1318/1409 0500 FG VV002

Decode

Departure Runways

ID Width Length Bearing (true) Bearing (mag) Surface Threshold Offset Overrun Length
11L 144 ft / 44 m 12,189 ft / 3,715 m 126.46° 113.17° Concrete 837 ft / 255 m 0 ft / 0 m
11R 148 ft / 45 m 8,174 ft / 2,492 m 124.48° 111.19° Concrete 0 ft / 0 m 180 ft / 55 m
29L 148 ft / 45 m 8,174 ft / 2,492 m 304.51° 291.22° Concrete 0 ft / 0 m 180 ft / 55 m
29R 144 ft / 44 m 12,189 ft / 3,715 m 306.50° 293.21° Concrete 0 ft / 0 m 160 ft / 49 m

UWLW

Details ICAO UWLW (ULY)
Name VOSTOCHNY
Region Russia
Timezone Europe/Moscow (UTC+3.0)
Stats Elevation 252 ft / 77 m (AMSL)
Location 54.401014° 48.802664°
Runways 1
Magnetic Variation 12.501° E

METAR

UWLW 131000Z 16007MPS 4600 -SNRA OVC008 M02/M03 Q1023 R20/850542 NOSIG RMK QFE761

Decode

TAF

TAF UWLW 130745Z 1309/1409 16006G12MPS 3100 -SN BLSN OVC007 TEMPO 1309/1409 13008G16MPS 0500 +SNRA FZRA VV002

Decode

Destination Runways

ID Width Length Bearing (true) Bearing (mag) Surface Threshold Offset Overrun Length
02 344 ft / 105 m 16,466 ft / 5,019 m 31.42° 18.92° Concrete 0 ft / 0 m 264 ft / 80 m
20 344 ft / 105 m 16,466 ft / 5,019 m 211.45° 198.95° Concrete 0 ft / 0 m 248 ft / 76 m

Approach Navaids

Runway Type Ident Frequency Range Bearing (true) Bearing (mag) Slope Elevation
02 Localiser IUL 110.10 MHz 18 nm / 33 km 31.62° 19.12° - 252 ft / 77 m (AMSL)
02 Glidescope IUL 110.10 MHz 10 nm / 19 km 31.44° 18.93° 2.70° 252 ft / 77 m (AMSL)
20 Localiser IWN 110.10 MHz 18 nm / 33 km 209.79° 197.29° - 252 ft / 77 m (AMSL)
20 Glidescope IWN 110.10 MHz 10 nm / 19 km 211.44° 198.93° 2.70° 252 ft / 77 m (AMSL)

Popular Alternatives